sensor_id;sensor_type;location;lat;lon;timestamp;P1;durP1;ratioP1;P2;durP2;ratioP2
47287;SDS011;33020;53.008;13.558;2022-10-31T00:03:51;11.23;;;6.70;;
47287;SDS011;33020;53.008;13.558;2022-10-31T00:06:19;13.10;;;6.90;;
47287;SDS011;33020;53.008;13.558;2022-10-31T00:08:46;13.57;;;7.20;;
47287;SDS011;33020;53.008;13.558;2022-10-31T00:11:14;13.00;;;7.70;;
47287;SDS011;33020;53.008;13.558;2022-10-31T00:13:41;12.70;;;7.47;;
47287;SDS011;33020;53.008;13.558;2022-10-31T00:16:15;17.43;;;8.20;;
47287;SDS011;33020;53.008;13.558;2022-10-31T00:18:51;12.67;;;6.90;;
47287;SDS011;33020;53.008;13.558;2022-10-31T00:21:19;11.87;;;7.27;;
47287;SDS011;33020;53.008;13.558;2022-10-31T00:23:46;12.57;;;8.00;;
47287;SDS011;33020;53.008;13.558;2022-10-31T00:26:13;13.70;;;8.17;;
47287;SDS011;33020;53.008;13.558;2022-10-31T00:28:40;13.20;;;7.93;;
47287;SDS011;33020;53.008;13.558;2022-10-31T00:31:07;14.73;;;8.70;;
47287;SDS011;33020;53.008;13.558;2022-10-31T00:33:36;12.27;;;7.33;;
47287;SDS011;33020;53.008;13.558;2022-10-31T00:36:04;13.90;;;7.63;;
47287;SDS011;33020;53.008;13.558;2022-10-31T00:38:31;11.63;;;7.70;;
47287;SDS011;33020;53.008;13.558;2022-10-31T00:40:58;12.90;;;7.60;;
47287;SDS011;33020;53.008;13.558;2022-10-31T00:43:25;12.97;;;8.03;;
47287;SDS011;33020;53.008;13.558;2022-10-31T00:45:52;14.63;;;8.17;;
47287;SDS011;33020;53.008;13.558;2022-10-31T00:48:21;14.60;;;8.17;;
47287;SDS011;33020;53.008;13.558;2022-10-31T00:50:48;11.37;;;7.77;;
47287;SDS011;33020;53.008;13.558;2022-10-31T00:53:14;12.67;;;8.33;;
47287;SDS011;33020;53.008;13.558;2022-10-31T00:55:41;14.60;;;7.40;;
47287;SDS011;33020;53.008;13.558;2022-10-31T00:58:07;12.00;;;7.57;;
47287;SDS011;33020;53.008;13.558;2022-10-31T01:00:34;12.47;;;8.00;;
47287;SDS011;33020;53.008;13.558;2022-10-31T01:03:01;10.93;;;7.13;;
47287;SDS011;33020;53.008;13.558;2022-10-31T01:05:28;13.57;;;7.67;;
47287;SDS011;33020;53.008;13.558;2022-10-31T01:07:55;11.93;;;7.73;;
47287;SDS011;33020;53.008;13.558;2022-10-31T01:10:22;10.37;;;7.03;;
47287;SDS011;33020;53.008;13.558;2022-10-31T01:12:49;12.17;;;7.37;;
47287;SDS011;33020;53.008;13.558;2022-10-31T01:15:17;19.00;;;7.73;;
47287;SDS011;33020;53.008;13.558;2022-10-31T01:17:48;11.40;;;6.57;;
47287;SDS011;33020;53.008;13.558;2022-10-31T01:20:15;14.27;;;8.10;;
47287;SDS011;33020;53.008;13.558;2022-10-31T01:22:43;11.30;;;7.13;;
47287;SDS011;33020;53.008;13.558;2022-10-31T01:25:10;12.13;;;7.87;;
47287;SDS011;33020;53.008;13.558;2022-10-31T01:27:36;14.00;;;7.33;;
47287;SDS011;33020;53.008;13.558;2022-10-31T01:30:04;13.03;;;7.93;;
47287;SDS011;33020;53.008;13.558;2022-10-31T01:32:31;11.60;;;8.20;;
47287;SDS011;33020;53.008;13.558;2022-10-31T01:34:58;11.17;;;7.27;;
47287;SDS011;33020;53.008;13.558;2022-10-31T01:37:25;12.37;;;7.93;;
47287;SDS011;33020;53.008;13.558;2022-10-31T01:39:52;12.07;;;7.47;;
47287;SDS011;33020;53.008;13.558;2022-10-31T01:42:19;15.30;;;7.50;;
47287;SDS011;33020;53.008;13.558;2022-10-31T01:44:54;11.53;;;7.07;;
47287;SDS011;33020;53.008;13.558;2022-10-31T01:47:43;10.47;;;7.57;;
47287;SDS011;33020;53.008;13.558;2022-10-31T01:50:14;11.37;;;7.90;;
47287;SDS011;33020;53.008;13.558;2022-10-31T01:52:47;10.20;;;7.68;;
47287;SDS011;33020;53.008;13.558;2022-10-31T01:55:21;11.70;;;7.10;;
47287;SDS011;33020;53.008;13.558;2022-10-31T01:57:56;11.77;;;7.30;;
47287;SDS011;33020;53.008;13.558;2022-10-31T02:00:25;10.53;;;6.67;;
47287;SDS011;33020;53.008;13.558;2022-10-31T02:02:52;10.97;;;6.83;;
47287;SDS011;33020;53.008;13.558;2022-10-31T02:05:23;9.03;;;6.83;;
47287;SDS011;33020;53.008;13.558;2022-10-31T02:10:36;10.80;;;7.37;;
47287;SDS011;33020;53.008;13.558;2022-10-31T02:13:04;8.93;;;6.67;;
47287;SDS011;33020;53.008;13.558;2022-10-31T02:15:32;11.23;;;7.17;;
47287;SDS011;33020;53.008;13.558;2022-10-31T02:17:59;12.37;;;7.47;;
47287;SDS011;33020;53.008;13.558;2022-10-31T02:20:28;10.73;;;7.50;;
47287;SDS011;33020;53.008;13.558;2022-10-31T02:25:45;11.07;;;7.87;;
47287;SDS011;33020;53.008;13.558;2022-10-31T02:37:01;13.97;;;7.57;;
47287;SDS011;33020;53.008;13.558;2022-10-31T02:39:37;13.87;;;7.83;;
47287;SDS011;33020;53.008;13.558;2022-10-31T02:42:59;10.57;;;7.07;;
47287;SDS011;33020;53.008;13.558;2022-10-31T02:45:29;11.83;;;7.27;;
47287;SDS011;33020;53.008;13.558;2022-10-31T02:48:00;10.87;;;7.07;;
47287;SDS011;33020;53.008;13.558;2022-10-31T02:50:33;12.93;;;7.57;;
47287;SDS011;33020;53.008;13.558;2022-10-31T02:53:01;9.83;;;7.10;;
47287;SDS011;33020;53.008;13.558;2022-10-31T02:57:56;11.73;;;7.13;;
47287;SDS011;33020;53.008;13.558;2022-10-31T03:00:29;10.30;;;6.57;;
47287;SDS011;33020;53.008;13.558;2022-10-31T03:05:45;9.17;;;6.63;;
47287;SDS011;33020;53.008;13.558;2022-10-31T03:08:22;14.00;;;8.53;;
47287;SDS011;33020;53.008;13.558;2022-10-31T03:10:57;11.70;;;8.23;;
47287;SDS011;33020;53.008;13.558;2022-10-31T03:13:39;13.50;;;8.40;;
47287;SDS011;33020;53.008;13.558;2022-10-31T03:18:40;16.17;;;7.53;;
47287;SDS011;33020;53.008;13.558;2022-10-31T03:21:13;16.10;;;8.37;;
47287;SDS011;33020;53.008;13.558;2022-10-31T03:23:43;13.90;;;8.03;;
47287;SDS011;33020;53.008;13.558;2022-10-31T03:26:11;13.00;;;7.40;;
47287;SDS011;33020;53.008;13.558;2022-10-31T03:28:52;14.77;;;8.77;;
47287;SDS011;33020;53.008;13.558;2022-10-31T03:31:22;20.23;;;8.87;;
47287;SDS011;33020;53.008;13.558;2022-10-31T03:33:51;18.20;;;9.43;;
47287;SDS011;33020;53.008;13.558;2022-10-31T03:36:18;14.43;;;8.43;;
47287;SDS011;33020;53.008;13.558;2022-10-31T03:38:45;14.57;;;9.13;;
47287;SDS011;33020;53.008;13.558;2022-10-31T03:41:18;14.13;;;8.60;;
47287;SDS011;33020;53.008;13.558;2022-10-31T03:43:48;18.25;;;8.43;;
47287;SDS011;33020;53.008;13.558;2022-10-31T03:46:23;15.80;;;8.73;;
47287;SDS011;33020;53.008;13.558;2022-10-31T03:48:50;16.67;;;8.57;;
47287;SDS011;33020;53.008;13.558;2022-10-31T03:51:25;18.60;;;9.83;;
47287;SDS011;33020;53.008;13.558;2022-10-31T03:54:02;16.13;;;9.43;;
47287;SDS011;33020;53.008;13.558;2022-10-31T03:56:35;21.60;;;11.10;;
47287;SDS011;33020;53.008;13.558;2022-10-31T04:01:58;17.27;;;9.77;;
47287;SDS011;33020;53.008;13.558;2022-10-31T04:04:27;20.27;;;11.10;;
47287;SDS011;33020;53.008;13.558;2022-10-31T04:06:54;22.20;;;10.67;;
47287;SDS011;33020;53.008;13.558;2022-10-31T04:09:21;16.37;;;9.30;;
47287;SDS011;33020;53.008;13.558;2022-10-31T04:11:49;15.40;;;9.47;;
47287;SDS011;33020;53.008;13.558;2022-10-31T04:14:18;20.67;;;10.63;;
47287;SDS011;33020;53.008;13.558;2022-10-31T04:16:45;26.07;;;10.53;;
47287;SDS011;33020;53.008;13.558;2022-10-31T04:19:12;19.90;;;10.63;;
47287;SDS011;33020;53.008;13.558;2022-10-31T04:21:39;19.97;;;10.07;;
47287;SDS011;33020;53.008;13.558;2022-10-31T04:24:06;21.67;;;11.80;;
47287;SDS011;33020;53.008;13.558;2022-10-31T04:26:33;19.20;;;11.40;;
47287;SDS011;33020;53.008;13.558;2022-10-31T04:29:00;22.23;;;10.83;;
47287;SDS011;33020;53.008;13.558;2022-10-31T04:31:27;20.67;;;11.00;;
47287;SDS011;33020;53.008;13.558;2022-10-31T04:33:53;23.47;;;10.83;;
47287;SDS011;33020;53.008;13.558;2022-10-31T04:36:20;20.77;;;10.37;;
47287;SDS011;33020;53.008;13.558;2022-10-31T04:38:47;18.03;;;10.13;;
47287;SDS011;33020;53.008;13.558;2022-10-31T04:41:14;19.77;;;10.57;;
47287;SDS011;33020;53.008;13.558;2022-10-31T04:43:41;19.03;;;10.73;;
47287;SDS011;33020;53.008;13.558;2022-10-31T04:46:08;17.00;;;9.30;;
47287;SDS011;33020;53.008;13.558;2022-10-31T04:48:35;21.83;;;11.33;;
47287;SDS011;33020;53.008;13.558;2022-10-31T04:51:02;18.63;;;11.13;;
47287;SDS011;33020;53.008;13.558;2022-10-31T04:53:29;19.03;;;9.93;;
47287;SDS011;33020;53.008;13.558;2022-10-31T04:55:57;22.30;;;10.63;;
47287;SDS011;33020;53.008;13.558;2022-10-31T04:58:24;19.73;;;10.77;;
47287;SDS011;33020;53.008;13.558;2022-10-31T05:00:52;19.37;;;10.33;;
47287;SDS011;33020;53.008;13.558;2022-10-31T05:03:19;17.87;;;10.47;;
47287;SDS011;33020;53.008;13.558;2022-10-31T05:05:46;17.77;;;10.23;;
47287;SDS011;33020;53.008;13.558;2022-10-31T05:08:14;21.47;;;10.80;;
47287;SDS011;33020;53.008;13.558;2022-10-31T05:10:40;20.63;;;10.63;;
47287;SDS011;33020;53.008;13.558;2022-10-31T05:13:07;21.87;;;11.43;;
47287;SDS011;33020;53.008;13.558;2022-10-31T05:15:34;21.53;;;12.00;;
47287;SDS011;33020;53.008;13.558;2022-10-31T05:18:01;19.40;;;9.90;;
47287;SDS011;33020;53.008;13.558;2022-10-31T05:20:29;21.27;;;10.93;;
47287;SDS011;33020;53.008;13.558;2022-10-31T05:22:57;23.23;;;11.50;;
47287;SDS011;33020;53.008;13.558;2022-10-31T05:25:27;20.00;;;12.20;;
47287;SDS011;33020;53.008;13.558;2022-10-31T05:27:55;20.53;;;12.50;;
47287;SDS011;33020;53.008;13.558;2022-10-31T05:30:24;21.63;;;11.57;;
47287;SDS011;33020;53.008;13.558;2022-10-31T05:32:52;18.80;;;12.03;;
47287;SDS011;33020;53.008;13.558;2022-10-31T05:35:26;20.40;;;10.93;;
47287;SDS011;33020;53.008;13.558;2022-10-31T05:37:57;21.97;;;11.63;;
47287;SDS011;33020;53.008;13.558;2022-10-31T05:40:25;21.90;;;12.30;;
47287;SDS011;33020;53.008;13.558;2022-10-31T05:42:54;19.00;;;11.53;;
47287;SDS011;33020;53.008;13.558;2022-10-31T05:45:22;23.00;;;11.10;;
47287;SDS011;33020;53.008;13.558;2022-10-31T05:47:59;26.47;;;13.00;;
47287;SDS011;33020;53.008;13.558;2022-10-31T05:50:28;18.50;;;10.43;;
47287;SDS011;33020;53.008;13.558;2022-10-31T05:52:59;19.57;;;11.20;;
47287;SDS011;33020;53.008;13.558;2022-10-31T05:55:28;22.97;;;12.60;;
47287;SDS011;33020;53.008;13.558;2022-10-31T05:57:56;24.97;;;12.80;;
47287;SDS011;33020;53.008;13.558;2022-10-31T06:00:24;22.57;;;11.53;;
47287;SDS011;33020;53.008;13.558;2022-10-31T06:03:02;25.63;;;13.87;;
47287;SDS011;33020;53.008;13.558;2022-10-31T06:05:30;21.70;;;12.50;;
47287;SDS011;33020;53.008;13.558;2022-10-31T06:07:57;19.53;;;11.33;;
47287;SDS011;33020;53.008;13.558;2022-10-31T06:10:25;19.87;;;12.87;;
47287;SDS011;33020;53.008;13.558;2022-10-31T06:12:53;19.90;;;12.50;;
47287;SDS011;33020;53.008;13.558;2022-10-31T06:15:20;19.67;;;11.67;;
47287;SDS011;33020;53.008;13.558;2022-10-31T06:18:04;25.13;;;11.97;;
47287;SDS011;33020;53.008;13.558;2022-10-31T06:20:32;21.00;;;12.43;;
47287;SDS011;33020;53.008;13.558;2022-10-31T06:23:00;19.37;;;12.13;;
47287;SDS011;33020;53.008;13.558;2022-10-31T06:25:27;23.03;;;12.70;;
47287;SDS011;33020;53.008;13.558;2022-10-31T06:27:54;21.57;;;12.30;;
47287;SDS011;33020;53.008;13.558;2022-10-31T06:30:22;20.63;;;11.83;;
47287;SDS011;33020;53.008;13.558;2022-10-31T06:32:49;23.37;;;13.20;;
47287;SDS011;33020;53.008;13.558;2022-10-31T06:35:16;17.63;;;11.40;;
47287;SDS011;33020;53.008;13.558;2022-10-31T06:37:50;15.90;;;11.93;;
47287;SDS011;33020;53.008;13.558;2022-10-31T06:40:17;19.27;;;10.27;;
47287;SDS011;33020;53.008;13.558;2022-10-31T06:42:44;18.10;;;10.50;;
47287;SDS011;33020;53.008;13.558;2022-10-31T06:45:11;19.03;;;11.93;;
47287;SDS011;33020;53.008;13.558;2022-10-31T06:47:38;18.40;;;11.37;;
47287;SDS011;33020;53.008;13.558;2022-10-31T06:50:25;18.33;;;11.90;;
47287;SDS011;33020;53.008;13.558;2022-10-31T06:52:56;21.97;;;11.93;;
47287;SDS011;33020;53.008;13.558;2022-10-31T06:55:24;15.67;;;10.97;;
47287;SDS011;33020;53.008;13.558;2022-10-31T06:57:55;16.70;;;10.20;;
47287;SDS011;33020;53.008;13.558;2022-10-31T07:00:29;18.30;;;11.40;;
47287;SDS011;33020;53.008;13.558;2022-10-31T07:02:57;18.30;;;11.07;;
47287;SDS011;33020;53.008;13.558;2022-10-31T07:05:25;17.27;;;11.47;;
47287;SDS011;33020;53.008;13.558;2022-10-31T07:07:57;17.93;;;10.77;;
47287;SDS011;33020;53.008;13.558;2022-10-31T07:10:29;21.40;;;12.33;;
47287;SDS011;33020;53.008;13.558;2022-10-31T07:13:04;19.30;;;12.33;;
47287;SDS011;33020;53.008;13.558;2022-10-31T07:15:33;19.97;;;12.07;;
47287;SDS011;33020;53.008;13.558;2022-10-31T07:18:05;15.43;;;10.80;;
47287;SDS011;33020;53.008;13.558;2022-10-31T07:20:32;19.73;;;12.50;;
47287;SDS011;33020;53.008;13.558;2022-10-31T07:22:59;17.20;;;11.03;;
47287;SDS011;33020;53.008;13.558;2022-10-31T07:25:28;20.13;;;12.13;;
47287;SDS011;33020;53.008;13.558;2022-10-31T07:27:55;17.87;;;11.70;;
47287;SDS011;33020;53.008;13.558;2022-10-31T07:30:22;17.67;;;11.77;;
47287;SDS011;33020;53.008;13.558;2022-10-31T07:32:49;16.20;;;11.37;;
47287;SDS011;33020;53.008;13.558;2022-10-31T07:35:21;15.17;;;11.30;;
47287;SDS011;33020;53.008;13.558;2022-10-31T07:37:52;17.70;;;11.87;;
47287;SDS011;33020;53.008;13.558;2022-10-31T07:40:20;17.33;;;11.17;;
47287;SDS011;33020;53.008;13.558;2022-10-31T07:42:48;16.20;;;11.13;;
47287;SDS011;33020;53.008;13.558;2022-10-31T07:45:17;19.33;;;11.23;;
47287;SDS011;33020;53.008;13.558;2022-10-31T07:47:49;24.83;;;11.70;;
47287;SDS011;33020;53.008;13.558;2022-10-31T07:50:24;17.50;;;10.67;;
47287;SDS011;33020;53.008;13.558;2022-10-31T07:52:58;15.10;;;10.40;;
47287;SDS011;33020;53.008;13.558;2022-10-31T07:55:29;14.77;;;10.87;;
47287;SDS011;33020;53.008;13.558;2022-10-31T08:00:24;17.13;;;10.27;;
47287;SDS011;33020;53.008;13.558;2022-10-31T08:03:01;18.10;;;10.53;;
47287;SDS011;33020;53.008;13.558;2022-10-31T08:05:30;15.73;;;10.60;;
47287;SDS011;33020;53.008;13.558;2022-10-31T08:07:57;17.57;;;10.73;;
47287;SDS011;33020;53.008;13.558;2022-10-31T08:10:25;16.73;;;11.40;;
47287;SDS011;33020;53.008;13.558;2022-10-31T08:12:59;16.03;;;11.50;;
47287;SDS011;33020;53.008;13.558;2022-10-31T08:15:27;14.83;;;9.80;;
47287;SDS011;33020;53.008;13.558;2022-10-31T08:17:54;17.23;;;11.33;;
47287;SDS011;33020;53.008;13.558;2022-10-31T08:20:21;14.40;;;9.80;;
47287;SDS011;33020;53.008;13.558;2022-10-31T08:23:02;17.00;;;11.37;;
47287;SDS011;33020;53.008;13.558;2022-10-31T08:25:30;15.40;;;11.57;;
47287;SDS011;33020;53.008;13.558;2022-10-31T08:30:31;13.67;;;10.07;;
47287;SDS011;33020;53.008;13.558;2022-10-31T08:33:03;16.70;;;10.23;;
47287;SDS011;33020;53.008;13.558;2022-10-31T08:35:32;18.77;;;11.70;;
47287;SDS011;33020;53.008;13.558;2022-10-31T08:37:59;17.20;;;12.25;;
47287;SDS011;33020;53.008;13.558;2022-10-31T08:40:30;23.30;;;13.68;;
47287;SDS011;33020;53.008;13.558;2022-10-31T08:43:02;17.75;;;12.77;;
47287;SDS011;33020;53.008;13.558;2022-10-31T08:45:34;19.65;;;11.82;;
47287;SDS011;33020;53.008;13.558;2022-10-31T08:48:06;18.30;;;11.35;;
47287;SDS011;33020;53.008;13.558;2022-10-31T08:53:03;21.25;;;13.05;;
47287;SDS011;33020;53.008;13.558;2022-10-31T08:55:32;18.88;;;13.32;;
47287;SDS011;33020;53.008;13.558;2022-10-31T08:58:03;21.27;;;12.88;;
47287;SDS011;33020;53.008;13.558;2022-10-31T09:00:32;18.27;;;12.73;;
47287;SDS011;33020;53.008;13.558;2022-10-31T09:03:00;18.73;;;11.80;;
47287;SDS011;33020;53.008;13.558;2022-10-31T09:05:28;19.77;;;13.38;;
47287;SDS011;33020;53.008;13.558;2022-10-31T09:07:55;23.17;;;15.68;;
47287;SDS011;33020;53.008;13.558;2022-10-31T09:10:27;22.35;;;15.07;;
47287;SDS011;33020;53.008;13.558;2022-10-31T09:12:57;25.77;;;16.17;;
47287;SDS011;33020;53.008;13.558;2022-10-31T09:15:36;27.25;;;17.92;;
47287;SDS011;33020;53.008;13.558;2022-10-31T09:18:04;26.38;;;17.58;;
47287;SDS011;33020;53.008;13.558;2022-10-31T09:20:32;26.85;;;17.88;;
47287;SDS011;33020;53.008;13.558;2022-10-31T09:23:00;28.85;;;20.10;;
47287;SDS011;33020;53.008;13.558;2022-10-31T09:25:29;34.00;;;21.88;;
47287;SDS011;33020;53.008;13.558;2022-10-31T09:27:57;32.67;;;21.02;;
47287;SDS011;33020;53.008;13.558;2022-10-31T09:30:26;27.58;;;18.17;;
47287;SDS011;33020;53.008;13.558;2022-10-31T09:32:57;33.67;;;22.50;;
47287;SDS011;33020;53.008;13.558;2022-10-31T09:35:24;35.25;;;21.73;;
47287;SDS011;33020;53.008;13.558;2022-10-31T09:37:55;34.85;;;21.10;;
47287;SDS011;33020;53.008;13.558;2022-10-31T09:40:24;25.63;;;18.67;;
47287;SDS011;33020;53.008;13.558;2022-10-31T09:46:08;32.25;;;20.20;;
47287;SDS011;33020;53.008;13.558;2022-10-31T09:51:30;29.63;;;18.40;;
47287;SDS011;33020;53.008;13.558;2022-10-31T09:54:04;30.35;;;19.63;;
47287;SDS011;33020;53.008;13.558;2022-10-31T09:56:33;22.83;;;15.80;;
47287;SDS011;33020;53.008;13.558;2022-10-31T09:59:05;26.15;;;17.67;;
47287;SDS011;33020;53.008;13.558;2022-10-31T10:01:45;22.02;;;15.90;;
47287;SDS011;33020;53.008;13.558;2022-10-31T10:04:30;26.98;;;17.92;;
47287;SDS011;33020;53.008;13.558;2022-10-31T10:07:10;21.63;;;16.27;;
47287;SDS011;33020;53.008;13.558;2022-10-31T10:15:13;28.38;;;18.85;;
47287;SDS011;33020;53.008;13.558;2022-10-31T10:18:03;26.40;;;17.48;;
47287;SDS011;33020;53.008;13.558;2022-10-31T10:20:40;26.80;;;16.13;;
47287;SDS011;33020;53.008;13.558;2022-10-31T10:25:44;24.60;;;15.65;;
47287;SDS011;33020;53.008;13.558;2022-10-31T10:28:17;25.20;;;16.05;;
47287;SDS011;33020;53.008;13.558;2022-10-31T10:30:59;20.42;;;14.38;;
47287;SDS011;33020;53.008;13.558;2022-10-31T10:33:31;25.77;;;16.20;;
47287;SDS011;33020;53.008;13.558;2022-10-31T10:36:00;22.33;;;15.82;;
47287;SDS011;33020;53.008;13.558;2022-10-31T10:38:33;22.27;;;14.38;;
47287;SDS011;33020;53.008;13.558;2022-10-31T10:41:04;22.70;;;14.88;;
47287;SDS011;33020;53.008;13.558;2022-10-31T10:43:36;21.08;;;14.48;;
47287;SDS011;33020;53.008;13.558;2022-10-31T10:49:06;17.13;;;12.95;;
47287;SDS011;33020;53.008;13.558;2022-10-31T11:00:23;22.90;;;16.17;;
47287;SDS011;33020;53.008;13.558;2022-10-31T11:05:39;22.15;;;15.00;;
47287;SDS011;33020;53.008;13.558;2022-10-31T11:08:08;20.67;;;14.35;;
47287;SDS011;33020;53.008;13.558;2022-10-31T11:10:35;21.15;;;14.93;;
47287;SDS011;33020;53.008;13.558;2022-10-31T11:15:50;20.08;;;13.27;;
47287;SDS011;33020;53.008;13.558;2022-10-31T11:18:25;25.02;;;14.77;;
47287;SDS011;33020;53.008;13.558;2022-10-31T11:20:53;25.85;;;15.40;;
47287;SDS011;33020;53.008;13.558;2022-10-31T11:23:22;21.20;;;13.63;;
47287;SDS011;33020;53.008;13.558;2022-10-31T11:25:50;23.52;;;15.40;;
47287;SDS011;33020;53.008;13.558;2022-10-31T11:28:26;21.00;;;15.52;;
47287;SDS011;33020;53.008;13.558;2022-10-31T11:30:59;20.45;;;12.70;;
47287;SDS011;33020;53.008;13.558;2022-10-31T11:33:36;20.08;;;12.48;;
47287;SDS011;33020;53.008;13.558;2022-10-31T11:36:21;19.67;;;11.05;;
47287;SDS011;33020;53.008;13.558;2022-10-31T11:38:49;23.65;;;16.27;;
47287;SDS011;33020;53.008;13.558;2022-10-31T11:41:17;18.98;;;12.25;;
47287;SDS011;33020;53.008;13.558;2022-10-31T11:43:50;16.98;;;12.32;;
47287;SDS011;33020;53.008;13.558;2022-10-31T11:46:21;17.05;;;12.40;;
47287;SDS011;33020;53.008;13.558;2022-10-31T11:48:55;22.52;;;14.88;;
47287;SDS011;33020;53.008;13.558;2022-10-31T11:51:29;19.92;;;14.70;;
47287;SDS011;33020;53.008;13.558;2022-10-31T11:53:58;26.13;;;15.18;;
47287;SDS011;33020;53.008;13.558;2022-10-31T11:56:41;20.85;;;13.73;;
47287;SDS011;33020;53.008;13.558;2022-10-31T11:59:15;20.25;;;13.98;;
47287;SDS011;33020;53.008;13.558;2022-10-31T12:01:51;18.25;;;12.60;;
47287;SDS011;33020;53.008;13.558;2022-10-31T12:04:19;21.05;;;14.38;;
47287;SDS011;33020;53.008;13.558;2022-10-31T12:06:56;20.45;;;13.93;;
47287;SDS011;33020;53.008;13.558;2022-10-31T12:09:25;21.58;;;12.68;;
47287;SDS011;33020;53.008;13.558;2022-10-31T12:17:34;24.05;;;14.80;;
47287;SDS011;33020;53.008;13.558;2022-10-31T12:22:52;23.42;;;13.45;;
47287;SDS011;33020;53.008;13.558;2022-10-31T12:33:34;25.52;;;14.48;;
47287;SDS011;33020;53.008;13.558;2022-10-31T12:38:51;22.05;;;14.27;;
47287;SDS011;33020;53.008;13.558;2022-10-31T12:44:25;23.63;;;15.85;;
47287;SDS011;33020;53.008;13.558;2022-10-31T12:55:45;28.20;;;18.77;;
47287;SDS011;33020;53.008;13.558;2022-10-31T12:58:21;28.77;;;19.08;;
47287;SDS011;33020;53.008;13.558;2022-10-31T13:06:27;23.85;;;15.93;;
47287;SDS011;33020;53.008;13.558;2022-10-31T13:09:02;27.25;;;16.38;;
47287;SDS011;33020;53.008;13.558;2022-10-31T13:11:34;22.58;;;15.13;;
47287;SDS011;33020;53.008;13.558;2022-10-31T13:14:05;21.23;;;14.25;;
47287;SDS011;33020;53.008;13.558;2022-10-31T13:16:42;21.02;;;13.68;;
47287;SDS011;33020;53.008;13.558;2022-10-31T13:19:14;20.98;;;14.25;;
47287;SDS011;33020;53.008;13.558;2022-10-31T13:27:03;24.15;;;14.25;;
47287;SDS011;33020;53.008;13.558;2022-10-31T13:29:39;21.73;;;13.23;;
47287;SDS011;33020;53.008;13.558;2022-10-31T13:32:19;29.27;;;16.60;;
47287;SDS011;33020;53.008;13.558;2022-10-31T13:34:47;18.98;;;12.13;;
47287;SDS011;33020;53.008;13.558;2022-10-31T13:40:34;22.52;;;14.55;;
47287;SDS011;33020;53.008;13.558;2022-10-31T13:43:12;19.13;;;12.40;;
47287;SDS011;33020;53.008;13.558;2022-10-31T13:45:52;17.55;;;11.55;;
47287;SDS011;33020;53.008;13.558;2022-10-31T13:48:32;21.02;;;12.90;;
47287;SDS011;33020;53.008;13.558;2022-10-31T13:51:02;18.40;;;11.70;;
47287;SDS011;33020;53.008;13.558;2022-10-31T13:56:32;20.70;;;13.27;;
47287;SDS011;33020;53.008;13.558;2022-10-31T14:01:36;18.25;;;11.63;;
47287;SDS011;33020;53.008;13.558;2022-10-31T14:07:09;26.02;;;14.88;;
47287;SDS011;33020;53.008;13.558;2022-10-31T14:09:52;20.73;;;13.38;;
47287;SDS011;33020;53.008;13.558;2022-10-31T14:15:18;27.80;;;19.05;;
47287;SDS011;33020;53.008;13.558;2022-10-31T14:22:40;27.35;;;17.70;;
47287;SDS011;33020;53.008;13.558;2022-10-31T14:27:55;30.45;;;19.02;;
47287;SDS011;33020;53.008;13.558;2022-10-31T14:30:24;27.23;;;16.85;;
47287;SDS011;33020;53.008;13.558;2022-10-31T14:32:53;34.70;;;21.20;;
47287;SDS011;33020;53.008;13.558;2022-10-31T14:35:23;28.80;;;19.20;;
47287;SDS011;33020;53.008;13.558;2022-10-31T14:46:02;30.08;;;18.05;;
47287;SDS011;33020;53.008;13.558;2022-10-31T14:51:25;27.70;;;17.83;;
47287;SDS011;33020;53.008;13.558;2022-10-31T14:53:56;29.38;;;17.20;;
47287;SDS011;33020;53.008;13.558;2022-10-31T14:56:28;27.33;;;17.75;;
47287;SDS011;33020;53.008;13.558;2022-10-31T14:59:00;29.15;;;17.63;;
47287;SDS011;33020;53.008;13.558;2022-10-31T15:04:16;27.83;;;17.88;;
47287;SDS011;33020;53.008;13.558;2022-10-31T15:09:57;24.67;;;16.52;;
47287;SDS011;33020;53.008;13.558;2022-10-31T15:12:30;22.33;;;15.15;;
47287;SDS011;33020;53.008;13.558;2022-10-31T15:14:57;26.30;;;18.27;;
47287;SDS011;33020;53.008;13.558;2022-10-31T15:17:41;28.85;;;16.92;;
47287;SDS011;33020;53.008;13.558;2022-10-31T15:20:17;24.05;;;17.17;;
47287;SDS011;33020;53.008;13.558;2022-10-31T15:22:49;29.77;;;21.23;;
47287;SDS011;33020;53.008;13.558;2022-10-31T15:25:19;29.15;;;19.98;;
47287;SDS011;33020;53.008;13.558;2022-10-31T15:27:50;26.33;;;18.45;;
47287;SDS011;33020;53.008;13.558;2022-10-31T15:30:26;29.35;;;18.58;;
47287;SDS011;33020;53.008;13.558;2022-10-31T15:32:54;26.05;;;17.45;;
47287;SDS011;33020;53.008;13.558;2022-10-31T15:35:25;26.85;;;18.70;;
47287;SDS011;33020;53.008;13.558;2022-10-31T15:37:54;29.45;;;19.08;;
47287;SDS011;33020;53.008;13.558;2022-10-31T15:40:22;27.45;;;18.98;;
47287;SDS011;33020;53.008;13.558;2022-10-31T15:42:51;34.30;;;19.27;;
47287;SDS011;33020;53.008;13.558;2022-10-31T15:45:23;28.13;;;18.10;;
47287;SDS011;33020;53.008;13.558;2022-10-31T15:47:58;30.13;;;19.48;;
47287;SDS011;33020;53.008;13.558;2022-10-31T15:50:32;29.83;;;19.35;;
47287;SDS011;33020;53.008;13.558;2022-10-31T15:53:06;32.97;;;19.90;;
47287;SDS011;33020;53.008;13.558;2022-10-31T15:55:47;30.30;;;18.73;;
47287;SDS011;33020;53.008;13.558;2022-10-31T15:58:17;32.80;;;20.42;;
47287;SDS011;33020;53.008;13.558;2022-10-31T16:00:44;38.13;;;19.90;;
47287;SDS011;33020;53.008;13.558;2022-10-31T16:16:27;26.48;;;17.30;;
47287;SDS011;33020;53.008;13.558;2022-10-31T16:19:02;37.53;;;19.48;;
47287;SDS011;33020;53.008;13.558;2022-10-31T16:21:30;25.95;;;16.55;;
47287;SDS011;33020;53.008;13.558;2022-10-31T16:24:24;24.42;;;16.92;;
47287;SDS011;33020;53.008;13.558;2022-10-31T16:26:54;26.63;;;17.80;;
47287;SDS011;33020;53.008;13.558;2022-10-31T16:32:00;25.38;;;16.52;;
47287;SDS011;33020;53.008;13.558;2022-10-31T16:34:27;27.05;;;17.50;;
47287;SDS011;33020;53.008;13.558;2022-10-31T16:36:54;27.25;;;18.20;;
47287;SDS011;33020;53.008;13.558;2022-10-31T16:39:21;32.95;;;19.60;;
47287;SDS011;33020;53.008;13.558;2022-10-31T16:41:50;28.35;;;16.63;;
47287;SDS011;33020;53.008;13.558;2022-10-31T16:44:19;28.02;;;18.23;;
47287;SDS011;33020;53.008;13.558;2022-10-31T16:46:51;34.05;;;18.02;;
47287;SDS011;33020;53.008;13.558;2022-10-31T16:49:34;32.70;;;18.95;;
47287;SDS011;33020;53.008;13.558;2022-10-31T16:52:00;27.75;;;18.60;;
47287;SDS011;33020;53.008;13.558;2022-10-31T16:54:28;30.77;;;19.23;;
47287;SDS011;33020;53.008;13.558;2022-10-31T16:56:55;25.42;;;18.13;;
47287;SDS011;33020;53.008;13.558;2022-10-31T16:59:22;24.33;;;17.02;;
47287;SDS011;33020;53.008;13.558;2022-10-31T17:01:48;23.05;;;15.50;;
47287;SDS011;33020;53.008;13.558;2022-10-31T17:04:15;26.95;;;17.83;;
47287;SDS011;33020;53.008;13.558;2022-10-31T17:06:42;27.33;;;16.30;;
47287;SDS011;33020;53.008;13.558;2022-10-31T17:09:09;27.65;;;16.98;;
47287;SDS011;33020;53.008;13.558;2022-10-31T17:11:36;25.55;;;17.33;;
47287;SDS011;33020;53.008;13.558;2022-10-31T17:14:10;23.45;;;16.48;;
47287;SDS011;33020;53.008;13.558;2022-10-31T17:16:37;25.67;;;16.30;;